Time;durP1;ratioP1;P1;durP2;ratioP2;P2;SDS_P1;SDS_P2;PMS_P1;PMS_P2;Temp;Humidity;BMP_temperature;BMP_pressure;BME280_temperature;BME280_humidity;BME280_pressure;Samples;Min_cycle;Max_cycle;Signal;HPM_P1;HPM_P2
2021/04/05 00:01:03;;;;;;;28.73;12.53;;;4.00;99.90;;;2.37;81.31;101048.78;3528714;39;104037;-39
2021/04/05 00:03:31;;;;;;;;;;;4.00;99.90;;;2.36;81.36;101039.84;3545859;39;103264;-40
2021/04/05 00:05:58;;;;;;;26.48;12.77;;;4.00;99.90;;;2.38;81.62;101023.56;3520515;39;103038;-40
2021/04/05 00:08:25;;;;;;;26.93;12.67;;;4.10;99.90;;;2.40;82.02;101011.63;3511508;39;102429;-40
2021/04/05 00:10:55;;;;;;;30.92;14.07;;;4.10;99.90;;;2.44;82.27;100998.69;3528351;39;103089;-39
2021/04/05 00:13:36;;;;;;;27.38;13.48;;;4.10;99.90;;;2.44;81.98;100994.16;3512154;39;104886;-39
2021/04/05 00:16:05;;;;;;;28.52;12.82;;;4.10;99.90;;;2.51;82.50;100986.28;3528523;39;103118;-40
2021/04/05 00:18:33;;;;;;;28.25;13.32;;;4.10;99.90;;;2.53;82.29;100981.63;3520340;39;102398;-40
2021/04/05 00:21:14;;;;;;;24.83;12.25;;;4.20;99.90;;;2.54;82.49;100971.66;3511760;39;104124;-40
2021/04/05 00:23:42;;;;;;;26.90;13.27;;;4.20;99.90;;;2.58;82.52;100963.13;3520270;39;102357;-40
2021/04/05 00:26:11;;;;;;;32.80;13.32;;;4.20;99.90;;;2.66;81.69;100943.50;3512290;39;104339;-40
2021/04/05 00:28:38;;;;;;;28.83;13.52;;;4.30;99.90;;;2.68;82.09;100938.78;3528608;39;104187;-39
2021/04/05 00:31:06;;;;;;;;;;;4.30;99.90;;;2.70;81.91;100934.09;3529057;39;103293;-39
2021/04/05 00:33:33;;;;;;;25.88;12.18;;;4.30;99.90;;;2.72;81.73;100933.91;3528957;39;102556;-39
2021/04/05 00:36:01;;;;;;;29.53;14.17;;;4.40;99.90;;;2.74;81.87;100937.28;3520262;39;103168;-40
2021/04/05 00:38:29;;;;;;;31.52;12.93;;;4.40;99.90;;;2.70;81.76;100923.31;3520195;39;103640;-39
2021/04/05 00:41:02;;;;;;;29.63;12.93;;;4.40;99.90;;;2.75;82.13;100927.38;3520466;39;102599;-40
2021/04/05 00:43:30;;;;;;;29.55;12.65;;;4.40;99.90;;;2.74;81.72;100915.75;3527934;39;102495;-39
2021/04/05 00:45:58;;;;;;;29.25;12.73;;;4.40;99.90;;;2.74;82.02;100899.56;3520874;39;104109;-39
2021/04/05 00:48:27;;;;;;;31.10;12.67;;;4.40;99.90;;;2.77;82.01;100887.66;3650084;22;103072;-41
2021/04/05 00:51:00;;;;;;;28.73;12.10;;;4.40;99.90;;;2.80;82.06;100896.25;3517776;40;103981;-41
2021/04/05 00:53:35;;;;;;;29.83;12.35;;;4.40;99.90;;;2.88;81.01;100890.06;3509610;40;102369;-41
2021/04/05 00:56:05;;;;;;;29.15;11.77;;;4.50;99.90;;;2.93;81.09;100882.34;3518498;40;105588;-41
2021/04/05 00:58:34;;;;;;;26.33;11.85;;;4.50;99.90;;;2.95;81.19;100883.03;3516122;40;102414;-41
2021/04/05 01:01:08;;;;;;;24.42;11.18;;;4.60;99.90;;;2.96;80.63;100881.16;3524847;39;102299;-41
2021/04/05 01:03:42;;;;;;;24.90;10.80;;;4.60;99.90;;;3.04;80.50;100872.28;3507826;40;102671;-41
2021/04/05 01:06:14;;;;;;;28.58;11.85;;;4.60;99.90;;;3.03;80.67;100863.34;3508697;40;105081;-40
2021/04/05 01:08:42;;;;;;;24.40;10.85;;;4.60;99.90;;;3.07;80.75;100864.72;3515867;40;104551;-41
2021/04/05 01:11:13;;;;;;;;;;;4.70;99.90;;;3.09;80.72;100841.16;3509165;40;103571;-41
2021/04/05 01:13:42;;;;;;;21.08;9.63;;;4.70;99.90;;;3.12;80.42;100823.78;3524575;39;102102;-43
2021/04/05 01:16:10;;;;;;;27.75;11.48;;;4.70;99.90;;;3.09;81.61;100830.34;3516331;40;102336;-41
2021/04/05 01:18:40;;;;;;;28.00;11.38;;;4.70;99.90;;;3.10;80.95;100823.97;3516205;40;102565;-41
2021/04/05 01:21:10;;;;;;;26.85;11.25;;;4.80;99.90;;;3.13;81.12;100814.69;3508192;40;104069;-41
2021/04/05 01:23:39;;;;;;;24.42;10.65;;;4.80;99.90;;;3.12;81.58;100821.94;3524023;39;102557;-40
2021/04/05 01:26:07;;;;;;;26.17;10.85;;;4.80;99.90;;;3.21;80.16;100820.13;3516306;40;102167;-41
2021/04/05 01:28:35;;;;;;;24.80;10.73;;;4.80;99.90;;;3.22;80.63;100808.31;3516378;40;103372;-41
2021/04/05 01:31:04;;;;;;;;;;;4.80;99.90;;;3.25;79.87;100801.75;3508890;40;104444;-41
2021/04/05 01:33:35;;;;;;;27.55;10.95;;;4.80;99.90;;;3.26;80.30;100798.91;3523410;39;102255;-41
2021/04/05 01:36:16;;;;;;;28.15;10.88;;;4.90;99.90;;;3.37;79.92;100792.34;3516633;40;105779;-41
2021/04/05 01:38:48;;;;;;;21.45;10.38;;;4.90;99.90;;;3.32;80.31;100789.31;3516103;40;102280;-41
2021/04/05 01:41:28;;;;;;;23.20;10.13;;;4.90;99.90;;;3.27;80.29;100776.31;3508418;40;104851;-41
2021/04/05 01:43:57;;;;;;;19.67;9.32;;;4.90;99.90;;;3.29;80.40;100768.91;3508068;40;103220;-41
2021/04/05 01:46:29;;;;;;;25.65;10.07;;;4.90;99.90;;;3.38;79.94;100763.50;3508290;40;102718;-41
2021/04/05 01:49:00;;;;;;;24.50;10.20;;;5.00;99.90;;;3.40;79.82;100746.16;3524679;39;102338;-41
2021/04/05 01:51:29;;;;;;;22.08;10.32;;;5.00;99.90;;;3.40;80.63;100756.09;3508140;40;104348;-41
2021/04/05 01:53:57;;;;;;;27.45;11.43;;;5.00;99.90;;;3.38;80.06;100739.22;3515861;40;102446;-40
2021/04/05 01:56:24;;;;;;;23.67;10.55;;;5.00;99.90;;;3.40;80.45;100726.41;3507853;40;105965;-41
2021/04/05 01:58:54;;;;;;;22.98;10.88;;;5.00;99.90;;;3.41;80.15;100720.00;3499885;40;102395;-41
2021/04/05 02:01:27;;;;;;;23.25;11.27;;;5.00;99.90;;;3.43;80.23;100717.97;3507984;40;104137;-40
2021/04/05 02:03:57;;;;;;;29.38;11.68;;;5.00;99.90;;;3.39;79.80;100712.09;3515874;40;102477;-41
2021/04/05 02:06:33;;;;;;;26.75;11.18;;;5.00;99.90;;;3.41;78.83;100712.78;3508029;40;102793;-41
2021/04/05 02:09:04;;;;;;;29.88;10.98;;;5.00;99.90;;;3.40;79.52;100704.84;3515067;40;102225;-43
2021/04/05 02:11:37;;;;;;;26.05;10.88;;;5.00;99.90;;;3.42;79.89;100702.81;3516143;40;103215;-41
2021/04/05 02:14:08;;;;;;;28.27;11.80;;;5.00;99.90;;;3.49;79.27;100693.06;3515368;40;102427;-41
2021/04/05 02:16:37;;;;;;;29.95;11.75;;;5.00;99.90;;;3.52;79.19;100681.06;3523913;39;102304;-40
2021/04/05 02:19:05;;;;;;;26.92;12.73;;;5.10;99.90;;;3.60;79.47;100673.81;3499589;40;103601;-41
2021/04/05 02:21:33;;;;;;;;;;;5.20;99.90;;;3.63;78.71;100674.47;3516669;40;102323;-41
2021/04/05 02:24:05;;;;;;;28.25;11.70;;;5.20;99.90;;;3.72;79.01;100649.19;3515761;40;102445;-40
2021/04/05 02:26:36;;;;;;;28.92;12.70;;;5.30;99.90;;;3.75;78.45;100632.66;3516021;40;104189;-41
2021/04/05 02:29:07;;;;;;;25.98;11.68;;;5.30;99.90;;;3.74;78.05;100623.69;3516051;39;103442;-41
2021/04/05 02:31:36;;;;;;;32.20;12.65;;;5.30;99.90;;;3.79;78.31;100622.34;3508106;40;104012;-41
2021/04/05 02:34:12;;;;;;;30.08;13.50;;;5.40;99.90;;;3.83;78.12;100608.34;3523805;39;103808;-42
2021/04/05 02:36:41;;;;;;;30.80;12.27;;;5.40;99.90;;;3.88;77.02;100605.94;3515961;40;104106;-41
2021/04/05 02:39:13;;;;;;;29.55;13.10;;;5.40;99.90;;;3.79;77.84;100589.94;3516077;39;104568;-41
2021/04/05 18:37:09;;;;;;;3.80;1.15;;;1.80;99.90;;;-0.23;80.31;101000.47;3569204;39;101982;-41
2021/04/05 18:39:40;;;;;;;1.88;0.80;;;1.70;99.90;;;-0.18;79.93;101005.41;3546860;39;102092;-41
2021/04/05 18:42:09;;;;;;;2.25;0.70;;;1.70;99.90;;;-0.13;79.21;101021.94;3535348;39;103244;-42
2021/04/05 18:44:46;;;;;;;3.25;0.80;;;1.70;99.90;;;-0.08;77.83;101019.69;3535614;39;104613;-42
2021/04/05 18:47:30;;;;;;;3.15;0.80;;;1.80;99.90;;;0.10;76.44;101046.69;3665909;22;109952;-40
2021/04/05 18:50:16;;;;;;;4.22;1.08;;;1.90;99.90;;;0.23;74.83;101048.25;3541104;39;103382;-40
2021/04/05 18:52:59;;;;;;;7.28;1.27;;;2.00;99.90;;;0.32;75.77;101052.81;3544821;39;103074;-40
2021/04/05 18:55:32;;;;;;;2.42;0.73;;;2.10;99.90;;;0.34;76.68;101055.34;3537190;39;102695;-40
2021/04/05 18:58:02;;;;;;;3.40;0.80;;;2.10;99.90;;;0.33;77.04;101053.66;3545870;39;102440;-40
2021/04/05 19:00:41;;;;;;;4.00;0.80;;;2.10;99.90;;;0.28;78.21;101054.09;3545737;39;104115;-40
2021/04/05 19:03:21;;;;;;;2.15;0.77;;;2.10;99.90;;;0.20;77.93;101059.28;3545563;39;103277;-40
2021/04/05 19:06:17;;;;;;;4.20;0.68;;;2.10;99.90;;;0.13;77.22;101037.50;3545059;39;103254;-40
2021/04/05 19:08:54;;;;;;;2.42;0.60;;;2.00;99.90;;;0.08;77.08;101045.13;3544556;39;105398;-40
2021/04/05 19:11:29;;;;;;;1.85;0.40;;;1.90;99.90;;;0.06;76.34;101041.75;3545207;39;102328;-40
2021/04/05 19:14:29;;;;;;;3.42;0.93;;;1.90;99.90;;;-0.02;76.77;101039.75;3537205;39;103175;-40
2021/04/05 19:17:26;;;;;;;0.93;0.50;;;1.90;99.90;;;-0.05;77.26;101035.53;3545230;39;102194;-40
2021/04/05 19:19:56;;;;;;;5.03;0.80;;;1.80;99.90;;;-0.11;77.38;101040.56;3545338;39;104036;-40
2021/04/05 19:22:57;;;;;;;2.22;0.73;;;1.80;99.90;;;-0.15;77.01;101051.59;3545323;39;103335;-40
2021/04/05 19:25:44;;;;;;;1.95;0.60;;;1.70;99.90;;;-0.12;77.03;101045.09;3544830;39;103134;-40
2021/04/05 19:28:32;;;;;;;4.68;1.23;;;1.70;99.90;;;-0.03;74.58;101038.91;3544781;39;104136;-40
2021/04/05 19:31:20;;;;;;;3.85;1.05;;;1.80;99.90;;;-0.06;74.94;101041.00;3545145;39;104047;-40
2021/04/05 19:34:08;;;;;;;1.55;0.55;;;1.80;99.90;;;-0.07;75.00;101036.63;3536890;39;103418;-40
2021/04/05 19:36:58;;;;;;;2.13;0.70;;;1.80;99.90;;;-0.07;75.42;101033.94;3545141;39;103762;-40
2021/04/05 19:39:54;;;;;;;1.98;0.60;;;1.70;99.90;;;-0.12;75.11;101028.16;3545175;39;102287;-41
2021/04/05 19:42:41;;;;;;;5.47;0.80;;;1.70;99.90;;;-0.13;74.97;101026.47;3546258;39;105009;-40
2021/04/05 19:45:36;;;;;;;3.67;1.02;;;1.70;99.90;;;-0.15;75.13;101027.44;3545693;39;103265;-40
2021/04/05 19:48:23;;;;;;;0.75;0.52;;;1.70;99.90;;;-0.22;76.01;101023.63;3538397;39;103573;-40
2021/04/05 19:51:15;;;;;;;3.38;0.80;;;1.60;99.90;;;-0.24;75.08;101017.53;3538596;39;103733;-40
2021/04/05 19:54:05;;;;;;;1.05;0.40;;;1.60;99.90;;;-0.26;75.25;101021.34;3537913;39;103125;-40
2021/04/05 19:56:38;;;;;;;3.70;0.80;;;1.60;99.90;;;-0.33;75.67;101010.31;3539294;39;103606;-40
2021/04/05 19:59:16;;;;;;;3.42;0.82;;;1.50;99.90;;;-0.36;75.88;101021.31;3537514;39;104946;-41
2021/04/05 20:02:09;;;;;;;3.20;0.80;;;1.50;99.90;;;-0.37;75.89;101015.09;3538735;39;103279;-40
2021/04/05 20:04:59;;;;;;;5.63;1.02;;;1.50;99.90;;;-0.42;75.59;101008.44;3537988;39;104066;-40
2021/04/05 20:07:47;;;;;;;7.88;0.82;;;1.40;99.90;;;-0.48;75.85;101008.00;3538875;39;102318;-40
2021/04/05 20:10:27;;;;;;;4.22;1.25;;;1.40;99.90;;;-0.49;76.61;101000.09;3537536;39;102357;-40
2021/04/05 20:13:20;;;;;;;4.85;0.82;;;1.40;99.90;;;-0.55;76.56;101006.84;3538302;39;102580;-40
2021/04/05 20:15:55;;;;;;;2.70;0.70;;;1.30;99.90;;;-0.51;76.24;101000.25;3538174;39;103232;-40
2021/04/05 20:18:35;;;;;;;3.88;0.77;;;1.30;99.90;;;-0.50;76.70;101007.31;3538363;39;104878;-40
2021/04/05 20:21:18;;;;;;;7.38;0.77;;;1.30;99.90;;;-0.48;75.99;101002.66;3539534;39;105196;-40
2021/04/05 20:24:00;;;;;;;3.67;0.93;;;1.40;99.90;;;-0.55;77.42;100998.78;3538856;39;103219;-40
2021/04/05 20:26:30;;;;;;;2.42;1.17;;;1.30;99.90;;;-0.54;76.71;100986.25;3538943;39;104014;-40
2021/04/05 20:29:20;;;;;;;7.07;1.60;;;1.30;99.90;;;-0.55;76.79;100988.06;3530022;39;102198;-40
2021/04/05 20:32:03;;;;;;;5.45;1.13;;;1.30;99.90;;;-0.50;77.15;100976.94;3530873;39;103164;-41
2021/04/05 20:34:52;;;;;;;7.25;1.10;;;1.30;99.90;;;-0.58;77.71;100969.59;3539064;39;102286;-40
2021/04/05 20:37:49;;;;;;;2.97;1.00;;;1.30;99.90;;;-0.57;76.72;100965.09;3538749;39;102101;-40
2021/04/05 20:40:31;;;;;;;4.70;1.02;;;1.30;99.90;;;-0.60;77.84;100971.56;3538463;39;103156;-40
2021/04/05 20:43:11;;;;;;;7.35;1.15;;;1.30;99.90;;;-0.65;77.72;100965.75;3539471;39;102332;-40
2021/04/05 20:45:59;;;;;;;6.13;1.05;;;1.20;99.90;;;-0.65;77.70;100958.59;3529242;39;102209;-40
2021/04/05 20:48:46;;;;;;;5.70;1.20;;;1.20;99.90;;;-0.64;77.76;100956.72;3537738;39;103999;-40
2021/04/05 20:51:44;;;;;;;7.43;1.15;;;1.20;99.90;;;-0.59;78.17;100963.38;3539213;39;103120;-40
2021/04/05 20:54:26;;;;;;;8.93;1.50;;;1.20;99.90;;;-0.56;77.49;100961.41;3537345;39;103081;-40
2021/04/05 20:57:08;;;;;;;4.35;1.40;;;1.20;99.90;;;-0.57;77.01;100949.84;3537880;39;104703;-40
2021/04/05 20:59:43;;;;;;;5.63;1.13;;;1.30;99.90;;;-0.55;76.92;100953.22;3537898;39;103223;-40
2021/04/05 21:02:22;;;;;;;9.27;1.45;;;1.30;99.90;;;-0.53;76.95;100951.28;3538079;39;105113;-40
2021/04/05 21:04:52;;;;;;;6.50;1.33;;;1.30;99.90;;;-0.51;77.63;100946.63;3537413;39;103287;-41
2021/04/05 21:07:28;;;;;;;3.72;1.23;;;1.30;99.90;;;-0.50;76.82;100947.47;3537788;39;102675;-40
2021/04/05 21:10:07;;;;;;;7.40;1.17;;;1.30;99.90;;;-0.51;76.46;100940.41;3537411;39;103089;-40
2021/04/05 21:12:55;;;;;;;3.53;1.27;;;1.30;99.90;;;-0.46;76.83;100939.03;3522837;39;102383;-40
2021/04/05 21:15:30;;;;;;;3.38;1.67;;;1.40;99.90;;;-0.31;77.31;100935.94;3529868;39;102769;-41
2021/04/05 21:18:05;;;;;;;8.13;2.05;;;1.40;99.90;;;-0.24;76.73;100921.00;3538284;39;102290;-40
2021/04/05 21:20:44;;;;;;;5.25;1.20;;;1.50;99.90;;;-0.24;76.34;100918.31;3539200;39;103198;-40
2021/04/05 21:23:16;;;;;;;;;;;1.50;99.90;;;-0.23;77.27;100903.94;3530658;39;102808;-40
2021/04/05 21:25:45;;;;;;;11.68;1.60;;;1.50;99.90;;;-0.22;77.36;100910.97;3539087;39;104214;-40
2021/04/05 21:28:26;;;;;;;4.00;1.10;;;1.60;99.90;;;-0.18;76.97;100911.53;3537866;39;104159;-41
2021/04/05 21:31:03;;;;;;;5.15;1.20;;;1.60;99.90;;;-0.17;76.81;100916.75;3538755;39;104031;-40
2021/04/05 21:33:39;;;;;;;3.85;1.00;;;1.60;99.90;;;-0.13;77.32;100911.13;3529781;39;103491;-40
2021/04/05 21:36:20;;;;;;;5.97;1.30;;;1.60;99.90;;;-0.12;76.58;100905.63;3529781;39;104888;-40
2021/04/05 21:39:10;;;;;;;7.63;1.20;;;1.70;99.90;;;-0.12;77.01;100904.75;3538816;39;102371;-40
2021/04/05 21:41:49;;;;;;;8.27;1.27;;;1.70;99.90;;;-0.08;77.88;100903.50;3538579;39;104275;-40
2021/04/05 21:44:20;;;;;;;;;;;1.70;99.90;;;-0.09;76.80;100901.81;3530722;39;102460;-40
2021/04/05 21:46:50;;;;;;;5.80;1.38;;;1.70;99.90;;;-0.06;76.63;100904.19;3529675;39;102387;-39
2021/04/05 21:49:36;;;;;;;6.32;1.38;;;1.70;99.90;;;-0.09;76.69;100905.34;3537752;39;103193;-40
2021/04/05 21:52:24;;;;;;;7.63;1.05;;;1.70;99.90;;;-0.07;76.53;100895.31;3537700;39;103126;-40
2021/04/05 21:54:57;;;;;;;9.40;1.50;;;1.70;99.90;;;-0.17;77.14;100889.94;3537735;39;103567;-40
2021/04/05 21:57:31;;;;;;;4.47;1.58;;;1.70;99.90;;;-0.13;78.83;100886.97;3537644;39;105138;-40
2021/04/05 22:00:01;;;;;;;7.40;1.80;;;1.70;99.90;;;-0.13;78.74;100895.88;3537625;39;102480;-40
2021/04/05 22:02:32;;;;;;;4.28;1.33;;;1.60;99.90;;;-0.17;79.46;100892.63;3538782;39;102234;-40
2021/04/05 22:05:02;;;;;;;6.55;1.90;;;1.60;99.90;;;-0.13;80.07;100882.47;3528973;39;102370;-40
2021/04/05 22:07:33;;;;;;;9.27;2.05;;;1.70;99.90;;;-0.11;80.23;100875.13;3529213;39;103079;-40
2021/04/05 22:10:08;;;;;;;3.78;1.50;;;1.70;99.90;;;-0.14;81.38;100894.16;3536624;39;103335;-40
2021/04/05 22:12:37;;;;;;;6.40;1.75;;;1.70;99.90;;;-0.16;82.94;100885.41;3529687;39;102299;-39
2021/04/05 22:15:12;;;;;;;6.15;1.70;;;1.60;99.90;;;-0.24;82.97;100878.09;3545522;39;103382;-40
2021/04/05 22:17:42;;;;;;;4.45;1.60;;;1.60;99.90;;;-0.30;84.14;100886.69;3529111;39;104151;-40
2021/04/05 22:20:22;;;;;;;3.97;1.70;;;1.50;99.90;;;-0.34;85.06;100890.63;3529212;39;103156;-40
2021/04/05 22:23:08;;;;;;;5.57;1.70;;;1.50;99.90;;;-0.38;84.90;100887.41;3529573;39;103157;-40
2021/04/05 22:25:39;;;;;;;7.38;1.67;;;1.40;99.90;;;-0.35;86.03;100884.44;3528918;39;104566;-40
2021/04/05 22:28:15;;;;;;;7.57;2.00;;;1.50;99.90;;;-0.36;86.62;100887.25;3538171;39;104919;-40
2021/04/05 22:30:43;;;;;;;7.43;2.22;;;1.50;99.90;;;-0.34;86.51;100883.44;3529573;39;102462;-40
2021/04/05 22:33:11;;;;;;;7.07;2.13;;;1.40;99.90;;;-0.36;86.99;100887.25;3538356;39;102360;-40
2021/04/05 22:35:43;;;;;;;3.20;1.70;;;1.50;99.90;;;-0.36;87.20;100882.75;3529433;39;102422;-40
2021/04/05 22:38:16;;;;;;;5.32;1.70;;;1.40;99.90;;;-0.34;87.02;100879.91;3538753;39;105187;-40
2021/04/05 22:40:57;;;;;;;8.48;2.10;;;1.50;99.90;;;-0.41;86.65;100884.97;3528995;39;102328;-40
2021/04/05 22:43:28;;;;;;;4.13;2.10;;;1.40;99.90;;;-0.42;87.82;100882.44;3528876;39;103159;-39
2021/04/05 22:46:06;;;;;;;5.22;2.00;;;1.40;99.90;;;-0.37;87.95;100877.50;3529022;39;102380;-40
2021/04/05 22:48:34;;;;;;;8.70;2.20;;;1.40;99.90;;;-0.39;87.31;100880.34;3528972;39;102208;-40
2021/04/05 22:51:12;;;;;;;;;;;1.40;99.90;;;-0.40;87.39;100878.63;3537998;39;102308;-39
2021/04/05 22:53:58;;;;;;;8.70;2.55;;;1.40;99.90;;;-0.49;87.88;100880.31;3536970;39;104869;-40
2021/04/05 22:56:38;;;;;;;8.13;2.55;;;1.40;99.90;;;-0.49;87.34;100899.09;3537491;39;104273;-40
2021/04/05 22:59:18;;;;;;;4.55;2.45;;;1.30;99.90;;;-0.51;88.42;100900.19;3537359;39;102425;-39
2021/04/05 23:01:59;;;;;;;7.03;2.50;;;1.30;99.90;;;-0.47;87.51;100886.41;3537285;39;102526;-40
2021/04/05 23:04:55;;;;;;;9.68;2.70;;;1.30;99.90;;;-0.47;87.56;100874.81;3536712;39;104315;-40
2021/04/05 23:07:52;;;;;;;9.80;2.63;;;1.30;99.90;;;-0.46;87.52;100873.81;3537061;39;103285;-40
2021/04/05 23:10:26;;;;;;;8.35;2.63;;;1.30;99.90;;;-0.45;87.79;100859.44;3536034;39;102833;-40
2021/04/05 23:12:59;;;;;;;8.75;2.40;;;1.40;99.90;;;-0.45;87.53;100870.16;3537160;39;103154;-40
2021/04/05 23:15:34;;;;;;;6.15;2.50;;;1.40;99.90;;;-0.41;87.94;100870.72;3537076;39;104388;-40
2021/04/05 23:18:16;;;;;;;5.70;1.90;;;1.40;99.90;;;-0.36;87.89;100869.34;3520921;39;105083;-40
2021/04/05 23:21:02;;;;;;;8.85;2.10;;;1.40;99.90;;;-0.34;88.36;100866.50;3536862;39;104039;-40
2021/04/05 23:23:34;;;;;;;7.18;2.33;;;1.50;99.90;;;-0.33;88.76;100868.19;3537986;39;102402;-40
2021/04/05 23:26:31;;;;;;;6.90;2.30;;;1.50;99.90;;;-0.29;88.79;100874.97;3530090;39;105571;-40
2021/04/05 23:29:09;;;;;;;7.53;2.17;;;1.50;99.90;;;-0.29;88.67;100872.28;3521737;39;102321;-40
2021/04/05 23:31:41;;;;;;;7.32;2.75;;;1.50;99.90;;;-0.29;89.29;100861.56;3530575;39;102391;-40
2021/04/05 23:34:21;;;;;;;4.78;2.00;;;1.50;99.90;;;-0.32;88.97;100868.06;3529783;39;103419;-40
2021/04/05 23:36:52;;;;;;;8.45;2.10;;;1.50;99.90;;;-0.32;89.43;100865.38;3530193;39;102239;-40
2021/04/05 23:39:32;;;;;;;8.43;2.30;;;1.50;99.90;;;-0.33;88.56;100876.22;3530143;39;103266;-40
2021/04/05 23:42:11;;;;;;;8.93;1.98;;;1.50;99.90;;;-0.35;89.02;100871.03;3529955;39;103294;-40
2021/04/05 23:44:41;;;;;;;9.70;2.20;;;1.50;99.90;;;-0.30;88.43;100867.91;3529932;39;102172;-40
2021/04/05 23:47:11;;;;;;;4.53;2.00;;;1.50;99.90;;;-0.25;88.13;100863.00;3538108;39;102182;-41
2021/04/05 23:49:41;;;;;;;8.27;2.30;;;1.50;99.90;;;-0.21;87.89;100861.72;3530004;39;102177;-40
2021/04/05 23:52:14;;;;;;;6.72;1.83;;;1.60;99.90;;;-0.16;88.15;100855.91;3529898;39;103974;-40
2021/04/05 23:54:54;;;;;;;6.80;2.30;;;1.60;99.90;;;-0.10;87.71;100850.00;3537770;39;103354;-40
2021/04/05 23:57:36;;;;;;;5.68;1.80;;;1.70;99.90;;;-0.01;87.09;100859.00;3521898;39;104628;-40
